createdAt,value
2022-09-20T00:02:02.682Z,95299.22
2022-09-20T00:04:30.400Z,95307.22
2022-09-20T00:06:57.984Z,95298.69
2022-09-20T00:09:25.557Z,95295.13
2022-09-20T00:11:53.111Z,95294.75
2022-09-20T00:14:20.680Z,95294.41
2022-09-20T00:16:49.641Z,95296.50
2022-09-20T00:19:20.040Z,95293.44
2022-09-20T00:21:47.656Z,95295.06
2022-09-20T00:24:16.078Z,95287.16
2022-09-20T00:26:43.721Z,95289.03
2022-09-20T00:29:12.707Z,95295.69
2022-09-20T00:31:42.723Z,95286.25
2022-09-20T00:34:29.858Z,95282.25
2022-09-20T00:36:57.428Z,95277.66
2022-09-20T00:39:25.060Z,95275.97
2022-09-20T00:41:52.646Z,95279.53
2022-09-20T00:44:47.807Z,95281.63
2022-09-20T00:47:22.793Z,95264.53
2022-09-20T00:49:55.733Z,95263.94
2022-09-20T00:52:24.136Z,95269.13
2022-09-20T00:54:51.875Z,95271.84
2022-09-20T00:57:19.799Z,95261.81
2022-09-20T00:59:48.631Z,95261.59
2022-09-20T01:02:18.254Z,95258.88
2022-09-20T01:04:47.060Z,95255.13
2022-09-20T01:07:19.362Z,95266.78
2022-09-20T01:09:47.207Z,95271.00
2022-09-20T01:12:17.459Z,95267.84
2022-09-20T01:14:45.991Z,95275.97
2022-09-20T01:17:14.010Z,95275.53
2022-09-20T01:19:49.632Z,95275.53
2022-09-20T01:22:26.674Z,95284.00
2022-09-20T01:25:00.515Z,95280.53
2022-09-20T01:27:42.301Z,95276.53
2022-09-20T01:30:11.281Z,95279.25
2022-09-20T01:33:07.354Z,95275.13
2022-09-20T01:35:36.635Z,95268.88
2022-09-20T01:38:14.787Z,95273.00
2022-09-20T01:40:49.149Z,95273.06
2022-09-20T01:43:22.587Z,95269.75
2022-09-20T01:45:50.785Z,95270.41
2022-09-20T01:48:26.992Z,95265.41
2022-09-20T01:51:13.491Z,95264.53
2022-09-20T01:54:19.683Z,95264.97
2022-09-20T01:57:22.636Z,95262.53
2022-09-20T02:00:05.678Z,95263.28
2022-09-20T02:03:05.389Z,95260.63
2022-09-20T02:05:47.715Z,95254.00
2022-09-20T02:08:28.120Z,95256.94
2022-09-20T02:11:11.066Z,95252.53
2022-09-20T02:14:06.422Z,95249.41
2022-09-20T02:16:47.324Z,95247.97
2022-09-20T02:19:41.001Z,95244.25
2022-09-20T02:22:32.672Z,95238.69
2022-09-20T02:25:10.399Z,95248.75
2022-09-20T02:27:46.620Z,95253.78
2022-09-20T02:30:25.438Z,95251.75
2022-09-20T02:33:08.102Z,95243.88
2022-09-20T02:35:42.844Z,95244.31
2022-09-20T02:38:19.325Z,95251.41
2022-09-20T02:40:58.044Z,95248.16
2022-09-20T02:43:32.417Z,95253.16
2022-09-20T02:46:03.038Z,95258.63
2022-09-20T02:48:39.155Z,95259.91
2022-09-20T02:51:10.799Z,95257.81
2022-09-20T02:53:42.151Z,95259.47
2022-09-20T02:56:14.213Z,95260.28
2022-09-20T02:58:49.663Z,95269.88
2022-09-20T03:01:23.862Z,95259.47
2022-09-20T03:03:58.479Z,95260.91
2022-09-20T03:06:32.598Z,95262.78
2022-09-20T03:09:06.186Z,95252.56
2022-09-20T03:11:38.461Z,95266.09
2022-09-20T03:14:15.003Z,95252.56
2022-09-20T03:16:53.789Z,95254.22
2022-09-20T03:19:35.121Z,95251.50
2022-09-20T03:22:10.280Z,95258.13
2022-09-20T03:24:45.126Z,95259.38
2022-09-20T03:27:18.684Z,95261.41
2022-09-20T03:29:59.395Z,95258.47
2022-09-20T03:32:42.204Z,95261.59
2022-09-20T03:35:25.921Z,95253.00
2022-09-20T03:38:05.037Z,95264.69
2022-09-20T03:41:03.496Z,95258.84
2022-09-20T03:43:43.801Z,95260.84
2022-09-20T03:46:18.560Z,95267.50
2022-09-20T03:49:15.724Z,95261.88
2022-09-20T03:51:50.689Z,95261.25
2022-09-20T03:54:49.925Z,95261.88
2022-09-20T03:57:56.550Z,95257.28
2022-09-20T04:00:26.511Z,95263.50
2022-09-20T04:03:04.469Z,95265.63
2022-09-20T04:05:41.111Z,95261.66
2022-09-20T04:08:19.315Z,95265.78
2022-09-20T04:10:54.982Z,95254.13
2022-09-20T04:13:33.229Z,95254.34
2022-09-20T04:16:10.681Z,95255.81
2022-09-20T04:18:42.333Z,95265.47
2022-09-20T04:21:15.689Z,95269.22
2022-09-20T04:23:50.686Z,95261.06
2022-09-20T04:26:23.471Z,95261.72
2022-09-20T04:28:55.155Z,95264.19
2022-09-20T04:35:20.139Z,95265.84
2022-09-20T04:37:48.120Z,95265.03
2022-09-20T04:40:35.495Z,95262.91
2022-09-20T04:43:24.292Z,95266.66
2022-09-20T04:46:16.420Z,95263.72
2022-09-20T04:49:13.200Z,95269.16
2022-09-20T04:52:00.726Z,95274.19
2022-09-20T04:55:09.655Z,95266.91
2022-09-20T04:58:13.665Z,95281.28
2022-09-20T05:00:58.333Z,95275.03
2022-09-20T05:03:42.938Z,95281.28
2022-09-20T05:06:30.391Z,95276.09
2022-09-20T05:09:20.603Z,95281.34
2022-09-20T05:12:19.804Z,95280.94
2022-09-20T05:15:09.616Z,95280.31
2022-09-20T05:17:45.762Z,95289.72
2022-09-20T05:20:47.937Z,95288.50
2022-09-20T05:23:44.320Z,95289.56
2022-09-20T05:26:15.565Z,95291.00
2022-09-20T05:28:54.356Z,95297.47
2022-09-20T05:31:28.235Z,95292.44
2022-09-20T05:34:01.429Z,95300.75
2022-09-20T05:36:34.836Z,95299.66
2022-09-20T05:39:11.424Z,95299.81
2022-09-20T05:41:42.671Z,95296.41
2022-09-20T05:44:17.721Z,95296.38
2022-09-20T05:46:54.734Z,95300.31
2022-09-20T05:49:31.851Z,95303.19
2022-09-20T05:52:12.688Z,95309.81
2022-09-20T05:55:01.303Z,95301.88
2022-09-20T05:57:41.090Z,95311.63
2022-09-20T06:00:12.390Z,95313.09
2022-09-20T06:02:48.446Z,95314.94
2022-09-20T06:05:22.852Z,95316.78
2022-09-20T06:08:29.281Z,95314.22
2022-09-20T06:11:05.240Z,95323.38
2022-09-20T06:13:45.437Z,95323.97
2022-09-20T06:16:15.470Z,95323.53
2022-09-20T06:18:48.584Z,95327.22
2022-09-20T06:21:26.533Z,95324.88
2022-09-20T06:23:58.178Z,95326.16
2022-09-20T06:26:28.408Z,95325.44
2022-09-20T06:28:59.273Z,95316.88
2022-09-20T06:31:26.904Z,95323.50
2022-09-20T06:33:57.399Z,95320.72
2022-09-20T06:36:46.957Z,95328.16
2022-09-20T06:39:38.256Z,95317.94
2022-09-20T06:42:06.315Z,95322.44
2022-09-20T06:44:33.902Z,95318.22
2022-09-20T06:47:01.775Z,95330.28
2022-09-20T06:49:29.380Z,95330.66
2022-09-20T06:51:58.774Z,95331.06
2022-09-20T06:54:27.087Z,95332.25
2022-09-20T06:56:55.322Z,95335.56
2022-09-20T06:59:23.077Z,95342.22
2022-09-20T07:01:50.828Z,95343.41
2022-09-20T07:04:18.490Z,95346.72
2022-09-20T07:06:46.081Z,95339.41
2022-09-20T07:09:15.059Z,95341.28
2022-09-20T07:11:43.083Z,95347.78
2022-09-20T07:14:10.761Z,95352.63
2022-09-20T07:16:39.057Z,95344.47
2022-09-20T07:19:06.976Z,95345.22
2022-09-20T07:21:49.009Z,95349.66
2022-09-20T07:24:18.210Z,95351.72
2022-09-20T07:26:56.395Z,95361.16
2022-09-20T07:29:24.431Z,95367.63
2022-09-20T07:31:52.276Z,95359.09
2022-09-20T07:34:20.478Z,95360.81
2022-09-20T07:36:48.300Z,95358.03
2022-09-20T07:39:16.018Z,95360.31
2022-09-20T07:41:46.576Z,95354.66
2022-09-20T07:44:24.886Z,95358.97
2022-09-20T07:46:54.025Z,95365.59
2022-09-20T07:49:22.537Z,95361.16
2022-09-20T07:51:50.583Z,95370.88
2022-09-20T07:54:18.290Z,95365.59
2022-09-20T07:56:48.013Z,95367.41
2022-09-20T07:59:16.014Z,95365.34
2022-09-20T08:01:44.211Z,95366.09
2022-09-20T08:04:11.951Z,95372.00
2022-09-20T08:06:41.049Z,95372.06
2022-09-20T08:09:11.362Z,95373.63
2022-09-20T08:11:40.064Z,95373.94
2022-09-20T08:14:09.549Z,95373.22
2022-09-20T08:16:39.596Z,95373.38
2022-09-20T08:19:07.283Z,95380.47
2022-09-20T08:21:38.053Z,95379.22
2022-09-20T08:24:06.111Z,95379.78
2022-09-20T08:26:35.717Z,95385.47
2022-09-20T08:29:03.554Z,95376.25
2022-09-20T08:31:34.447Z,95382.75
2022-09-20T08:34:03.736Z,95383.78
2022-09-20T08:36:36.430Z,95385.09
2022-09-20T08:41:56.659Z,95393.50
2022-09-20T08:44:27.355Z,95390.41
2022-09-20T08:47:06.055Z,95390.34
2022-09-20T08:49:34.535Z,95389.41
2022-09-20T08:52:03.297Z,95390.72
2022-09-20T08:54:33.240Z,95392.56
2022-09-20T08:57:05.291Z,95388.66
2022-09-20T08:59:33.689Z,95388.75
2022-09-20T09:02:02.717Z,95391.31
2022-09-20T09:04:36.555Z,95396.81
2022-09-20T09:07:04.890Z,95397.78
2022-09-20T09:09:37.793Z,95399.38
2022-09-20T09:12:05.904Z,95400.09
2022-09-20T09:14:52.204Z,95393.31
2022-09-20T09:17:27.335Z,95399.19
2022-09-20T09:19:56.207Z,95400.56
2022-09-20T09:22:26.577Z,95404.91
2022-09-20T09:25:24.835Z,95418.38
2022-09-20T09:27:54.873Z,95403.00
2022-09-20T09:30:24.673Z,95404.19
2022-09-20T09:32:54.213Z,95401.72
2022-09-20T09:35:29.243Z,95400.38
2022-09-20T09:37:59.218Z,95391.44
2022-09-20T09:40:27.476Z,95393.53
2022-09-20T09:42:56.913Z,95392.72
2022-09-20T09:45:31.521Z,95394.56
2022-09-20T09:48:02.221Z,95392.00
2022-09-20T09:50:31.810Z,95391.53
2022-09-20T09:53:02.820Z,95391.53
2022-09-20T09:55:39.481Z,95386.91
2022-09-20T09:58:14.378Z,95387.63
2022-09-20T10:00:46.563Z,95388.22
2022-09-20T10:03:32.176Z,95388.28
2022-09-20T10:06:08.822Z,95389.13
2022-09-20T10:08:52.068Z,95396.06
2022-09-20T10:11:28.566Z,95390.56
2022-09-20T10:14:03.612Z,95380.22
2022-09-20T10:16:38.449Z,95385.78
2022-09-20T10:19:13.539Z,95384.63
2022-09-20T10:21:49.244Z,95388.63
2022-09-20T10:24:30.202Z,95384.94
2022-09-20T10:27:11.444Z,95379.88
2022-09-20T10:29:53.013Z,95384.22
2022-09-20T10:32:28.792Z,95381.84
2022-09-20T10:35:23.967Z,95380.75
2022-09-20T10:38:12.551Z,95380.19
2022-09-20T10:41:03.399Z,95384.56
2022-09-20T10:43:42.893Z,95390.50
2022-09-20T10:46:33.531Z,95391.72
2022-09-20T10:49:10.111Z,95393.41
2022-09-20T10:51:44.853Z,95390.09
2022-09-20T10:54:23.811Z,95384.44
2022-09-20T10:56:53.493Z,95386.69
2022-09-20T10:59:28.495Z,95385.31
2022-09-20T11:02:10.472Z,95384.75
2022-09-20T11:04:56.015Z,95389.41
2022-09-20T11:07:34.620Z,95392.59
2022-09-20T11:10:06.283Z,95388.47
2022-09-20T11:12:38.281Z,95387.38
2022-09-20T11:15:10.145Z,95387.16
2022-09-20T11:17:41.124Z,95386.63
2022-09-20T11:20:16.609Z,95392.03
2022-09-20T11:22:49.320Z,95397.34
2022-09-20T11:25:21.577Z,95392.66
2022-09-20T11:27:53.767Z,95397.25
2022-09-20T11:30:23.017Z,95398.59
2022-09-20T11:32:53.570Z,95404.06
2022-09-20T11:35:30.254Z,95381.09
2022-09-20T11:38:06.183Z,95392.78
2022-09-20T11:40:35.863Z,95390.63
2022-09-20T11:43:06.426Z,95384.09
2022-09-20T11:45:35.215Z,95386.53
2022-09-20T11:48:05.240Z,95384.19
2022-09-20T11:50:48.614Z,95384.28
2022-09-20T11:53:27.040Z,95383.81
2022-09-20T11:55:59.746Z,95388.00
2022-09-20T11:58:27.842Z,95377.78
2022-09-20T12:00:57.320Z,95379.06
2022-09-20T12:03:34.429Z,95370.97
2022-09-20T12:06:03.848Z,95372.16
2022-09-20T12:08:35.404Z,95367.41
2022-09-20T12:11:05.201Z,95373.03
2022-09-20T12:13:35.323Z,95370.41
2022-09-20T12:16:07.139Z,95372.81
2022-09-20T12:18:47.439Z,95373.69
2022-09-20T12:21:20.756Z,95373.13
2022-09-20T12:24:19.681Z,95361.31
2022-09-20T12:26:48.675Z,95358.88
2022-09-20T12:29:55.858Z,95356.22
2022-09-20T12:32:56.405Z,95354.00
2022-09-20T12:36:01.190Z,95352.28
2022-09-20T12:38:38.542Z,95352.97
2022-09-20T12:41:10.936Z,95351.63
2022-09-20T12:43:48.597Z,95351.72
2022-09-20T12:46:24.891Z,95341.22
2022-09-20T12:48:52.917Z,95352.53
2022-09-20T12:51:43.240Z,95349.13
2022-09-20T12:54:12.287Z,95342.53
2022-09-20T12:56:43.195Z,95340.66
2022-09-20T12:59:21.988Z,95338.03
2022-09-20T13:02:47.570Z,95346.69
2022-09-20T13:05:36.274Z,95332.56
2022-09-20T13:08:11.126Z,95334.25
2022-09-20T13:10:42.948Z,95339.75
2022-09-20T13:13:31.963Z,95346.56
2022-09-20T13:16:01.267Z,95339.09
2022-09-20T13:18:29.348Z,95336.84
2022-09-20T13:20:58.078Z,95332.66
2022-09-20T13:23:28.675Z,95344.81
2022-09-20T13:25:58.585Z,95338.69
2022-09-20T13:28:33.045Z,95339.69
2022-09-20T13:31:28.419Z,95338.34
2022-09-20T13:33:56.186Z,95330.63
2022-09-20T13:36:28.639Z,95340.19
2022-09-20T13:38:57.476Z,95338.63
2022-09-20T13:41:29.176Z,95337.00
2022-09-20T13:43:58.172Z,95333.31
2022-09-20T13:46:30.567Z,95343.56
2022-09-20T13:49:08.469Z,95342.16
2022-09-20T13:51:36.699Z,95333.66
2022-09-20T13:54:19.342Z,95333.25
2022-09-20T13:56:47.052Z,95335.97
2022-09-20T13:59:19.298Z,95329.41
2022-09-20T14:01:50.821Z,95325.81
2022-09-20T14:04:20.124Z,95317.13
2022-09-20T14:06:47.815Z,95310.63
2022-09-20T14:09:20.915Z,95317.81
2022-09-20T14:11:48.537Z,95312.25
2022-09-20T14:14:21.410Z,95317.63
2022-09-20T14:16:50.755Z,95312.78
2022-09-20T14:19:20.881Z,95317.88
2022-09-20T14:21:49.025Z,95325.94
2022-09-20T14:24:31.855Z,95317.22
2022-09-20T14:27:06.511Z,95327.72
2022-09-20T14:29:41.192Z,95320.19
2022-09-20T14:32:15.838Z,95318.88
2022-09-20T14:34:43.886Z,95324.16
2022-09-20T14:37:15.234Z,95323.03
2022-09-20T14:39:48.638Z,95327.41
2022-09-20T14:42:20.966Z,95329.22
2022-09-20T14:44:53.142Z,95323.69
2022-09-20T14:47:27.807Z,95322.06
2022-09-20T14:49:55.592Z,95315.81
2022-09-20T14:52:32.225Z,95323.34
2022-09-20T14:55:01.417Z,95315.41
2022-09-20T14:57:29.510Z,95325.28
2022-09-20T14:59:59.156Z,95326.31
2022-09-20T15:02:27.360Z,95320.91
2022-09-20T15:04:57.308Z,95323.28
2022-09-20T15:07:24.885Z,95323.28
2022-09-20T15:09:52.510Z,95328.91
2022-09-20T15:12:21.477Z,95326.81
2022-09-20T15:14:49.697Z,95322.94
2022-09-20T15:17:19.941Z,95321.03
2022-09-20T15:19:47.585Z,95337.38
2022-09-20T15:22:15.886Z,95334.56
2022-09-20T15:24:44.126Z,95326.38
2022-09-20T15:27:12.818Z,95325.88
2022-09-20T15:29:40.453Z,95328.47
2022-09-20T15:32:09.924Z,95329.41
2022-09-20T15:34:39.140Z,95332.69
2022-09-20T15:37:06.714Z,95339.81
2022-09-20T15:39:34.364Z,95340.00
2022-09-20T15:42:02.504Z,95345.38
2022-09-20T15:44:30.076Z,95350.47
2022-09-20T15:46:57.760Z,95344.81
2022-09-20T15:49:25.307Z,95351.94
2022-09-20T15:51:54.260Z,95351.13
2022-09-20T15:54:21.981Z,95347.59
2022-09-20T15:56:51.876Z,95354.84
2022-09-20T15:59:23.083Z,95357.41
2022-09-20T16:01:51.674Z,95361.47
2022-09-20T16:04:20.605Z,95352.03
2022-09-20T16:06:49.899Z,95353.69
2022-09-20T16:09:19.153Z,95347.91
2022-09-20T16:11:47.202Z,95354.09
2022-09-20T16:14:14.916Z,95358.91
2022-09-20T16:16:42.598Z,95357.06
2022-09-20T16:19:20.674Z,95357.56
2022-09-20T16:21:53.766Z,95357.38
2022-09-20T16:24:26.920Z,95366.91
2022-09-20T16:26:54.596Z,95358.56
2022-09-20T16:29:23.437Z,95368.94
2022-09-20T16:31:51.278Z,95357.47
2022-09-20T16:34:20.208Z,95366.94
2022-09-20T16:36:48.947Z,95364.00
2022-09-20T16:39:17.763Z,95364.16
2022-09-20T16:41:48.167Z,95368.88
2022-09-20T16:44:16.554Z,95363.09
2022-09-20T16:46:45.182Z,95363.09
2022-09-20T16:49:13.471Z,95367.50
2022-09-20T16:51:43.030Z,95373.09
2022-09-20T16:54:13.148Z,95369.66
2022-09-20T16:56:42.150Z,95374.31
2022-09-20T16:59:11.267Z,95374.78
2022-09-20T17:01:39.906Z,95380.00
2022-09-20T17:04:08.341Z,95372.44
2022-09-20T17:06:37.309Z,95380.72
2022-09-20T17:09:06.023Z,95384.91
2022-09-20T17:11:35.881Z,95386.81
2022-09-20T17:14:03.908Z,95388.22
2022-09-20T17:16:34.959Z,95397.59
2022-09-20T17:19:04.346Z,95385.72
2022-09-20T17:22:13.904Z,95390.13
2022-09-20T17:24:41.540Z,95400.47
2022-09-20T17:27:09.386Z,95400.31
2022-09-20T17:29:36.947Z,95402.47
2022-09-20T17:32:06.161Z,95404.13
2022-09-20T17:34:34.185Z,95409.94
2022-09-20T17:37:03.429Z,95420.84
2022-09-20T17:39:31.001Z,95419.91
2022-09-20T17:41:58.769Z,95421.09
2022-09-20T17:44:26.395Z,95428.25
2022-09-20T17:46:54.313Z,95436.06
2022-09-20T17:49:24.228Z,95430.50
2022-09-20T17:51:52.842Z,95441.63
2022-09-20T17:54:21.105Z,95437.25
2022-09-20T17:56:50.156Z,95448.16
2022-09-20T17:59:19.143Z,95446.84
2022-09-20T18:01:48.478Z,95450.16
2022-09-20T18:04:16.153Z,95455.88
2022-09-20T18:06:47.176Z,95457.16
2022-09-20T18:09:16.073Z,95456.69
2022-09-20T18:11:45.350Z,95457.16
2022-09-20T18:14:13.430Z,95466.63
2022-09-20T18:16:41.220Z,95462.25
2022-09-20T18:19:09.256Z,95464.16
2022-09-20T18:21:38.167Z,95469.56
2022-09-20T18:24:08.663Z,95474.66
2022-09-20T18:26:37.062Z,95470.31
2022-09-20T18:29:06.395Z,95480.47
2022-09-20T18:31:35.950Z,95479.03
2022-09-20T18:34:04.853Z,95486.41
2022-09-20T18:36:34.102Z,95485.75
2022-09-20T18:39:01.695Z,95491.66
2022-09-20T18:41:33.231Z,95491.31
2022-09-20T18:44:01.801Z,95499.69
2022-09-20T18:46:30.777Z,95495.09
2022-09-20T18:49:02.085Z,95498.88
2022-09-20T18:51:29.910Z,95495.94
2022-09-20T18:53:57.996Z,95502.16
2022-09-20T18:56:27.308Z,95507.38
2022-09-20T18:58:58.561Z,95501.47
2022-09-20T19:01:48.626Z,95511.19
2022-09-20T19:04:46.070Z,95512.38
2022-09-20T19:07:25.256Z,95516.16
2022-09-20T19:09:57.515Z,95520.56
2022-09-20T19:12:26.886Z,95518.97
2022-09-20T19:15:06.113Z,95522.84
2022-09-20T19:17:47.922Z,95524.94
2022-09-20T19:20:23.104Z,95531.25
2022-09-20T19:23:00.809Z,95535.38
2022-09-20T19:25:34.508Z,95534.69
2022-09-20T19:28:02.456Z,95535.53
2022-09-20T19:30:32.555Z,95527.34
2022-09-20T19:33:02.682Z,95536.16
2022-09-20T19:35:34.772Z,95545.72
2022-09-20T19:38:05.741Z,95540.06
2022-09-20T19:40:42.081Z,95541.38
2022-09-20T19:43:23.741Z,95541.09
2022-09-20T19:45:58.703Z,95549.75
2022-09-20T19:48:31.064Z,95550.50
2022-09-20T19:51:00.083Z,95552.00
2022-09-20T19:53:28.723Z,95550.09
2022-09-20T19:56:00.730Z,95563.34
2022-09-20T19:58:28.992Z,95571.38
2022-09-20T20:00:59.003Z,95565.09
2022-09-20T20:03:28.655Z,95573.25
2022-09-20T20:06:05.707Z,95568.03
2022-09-20T20:08:39.595Z,95568.41
2022-09-20T20:11:13.236Z,95575.75
2022-09-20T20:14:01.956Z,95574.94
2022-09-20T20:16:33.840Z,95572.59
2022-09-20T20:19:12.261Z,95571.06
2022-09-20T20:21:47.261Z,95580.31
2022-09-20T20:24:22.862Z,95581.94
2022-09-20T20:26:50.499Z,95581.19
2022-09-20T20:29:18.137Z,95584.28
2022-09-20T20:31:47.156Z,95577.59
2022-09-20T20:34:16.285Z,95580.06
2022-09-20T20:36:44.572Z,95586.78
2022-09-20T20:39:12.544Z,95584.06
2022-09-20T20:41:41.101Z,95584.06
2022-09-20T20:44:08.672Z,95586.34
2022-09-20T20:46:37.134Z,95586.34
2022-09-20T20:49:06.102Z,95580.91
2022-09-20T20:51:33.707Z,95592.38
2022-09-20T20:54:01.609Z,95585.88
2022-09-20T20:56:30.434Z,95580.44
2022-09-20T20:59:00.666Z,95586.72
2022-09-20T21:01:30.059Z,95585.97
2022-09-20T21:03:58.503Z,95587.84
2022-09-20T21:06:29.556Z,95583.25
2022-09-20T21:08:57.340Z,95589.28
2022-09-20T21:11:27.365Z,95590.97
2022-09-20T21:13:57.075Z,95593.44
2022-09-20T21:16:26.172Z,95588.84
2022-09-20T21:18:53.824Z,95583.41
2022-09-20T21:21:23.061Z,95590.25
2022-09-20T21:23:53.324Z,95588.97
2022-09-20T21:26:21.590Z,95580.81
2022-09-20T21:28:52.031Z,95590.88
2022-09-20T21:31:20.851Z,95587.38
2022-09-20T21:33:48.631Z,95596.63
2022-09-20T21:36:18.206Z,95595.63
2022-09-20T21:38:46.253Z,95593.41
2022-09-20T21:41:17.708Z,95594.78
2022-09-20T21:43:46.544Z,95588.13
2022-09-20T21:46:15.552Z,95594.25
2022-09-20T21:48:43.257Z,95592.03
2022-09-20T21:51:12.085Z,95594.81
2022-09-20T21:53:40.251Z,95590.91
2022-09-20T21:56:09.803Z,95594.09
2022-09-20T21:58:40.081Z,95595.59
2022-09-20T22:01:11.408Z,95604.00
2022-09-20T22:03:40.827Z,95605.91
2022-09-20T22:06:10.418Z,95601.69
2022-09-20T22:08:39.065Z,95605.84
2022-09-20T22:11:10.232Z,95599.81
2022-09-20T22:13:43.653Z,95597.53
2022-09-20T22:16:12.261Z,95597.38
2022-09-20T22:18:41.405Z,95600.63
2022-09-20T22:21:11.919Z,95595.41
2022-09-20T22:23:39.852Z,95601.50
2022-09-20T22:26:10.484Z,95607.78
2022-09-20T22:28:38.485Z,95601.53
2022-09-20T22:31:09.312Z,95601.34
2022-09-20T22:33:41.355Z,95597.91
2022-09-20T22:36:09.777Z,95594.13
2022-09-20T22:38:37.601Z,95596.06
2022-09-20T22:41:06.104Z,95587.09
2022-09-20T22:43:34.703Z,95593.59
2022-09-20T22:46:03.701Z,95593.41
2022-09-20T22:48:33.396Z,95580.06
2022-09-20T22:51:01.670Z,95585.50
2022-09-20T22:53:29.989Z,95591.34
2022-09-20T22:56:03.974Z,95591.34
2022-09-20T22:58:32.760Z,95592.25
2022-09-20T23:01:05.813Z,95599.75
2022-09-20T23:03:34.792Z,95593.53
2022-09-20T23:06:03.064Z,95595.22
2022-09-20T23:08:33.151Z,95602.72
2022-09-20T23:11:02.250Z,95599.78
2022-09-20T23:13:29.959Z,95599.38
2022-09-20T23:15:57.721Z,95586.03
2022-09-20T23:18:25.601Z,95599.59
2022-09-20T23:21:03.358Z,95588.31
2022-09-20T23:23:31.330Z,95592.72
2022-09-20T23:26:07.343Z,95597.75
2022-09-20T23:28:35.341Z,95592.81
2022-09-20T23:31:04.783Z,95603.25
2022-09-20T23:33:32.778Z,95601.59
2022-09-20T23:36:00.520Z,95599.88
2022-09-20T23:38:29.431Z,95603.47
2022-09-20T23:40:57.635Z,95598.88
2022-09-20T23:43:25.191Z,95592.88
2022-09-20T23:45:53.253Z,95604.34
2022-09-20T23:48:20.830Z,95596.84
2022-09-20T23:50:48.444Z,95597.44
2022-09-20T23:53:15.997Z,95597.69
2022-09-20T23:55:45.171Z,95597.69
2022-09-20T23:58:12.791Z,95600.41
